sensor_id;sensor_type;location;lat;lon;timestamp;P1;durP1;ratioP1;P2;durP2;ratioP2
22449;SDS011;11392;57.390;-2.468;2023-03-20T00:01:57;3.72;;;1.92;;
22449;SDS011;11392;57.390;-2.468;2023-03-20T00:04:25;4.13;;;2.22;;
22449;SDS011;11392;57.390;-2.468;2023-03-20T00:06:52;3.38;;;2.28;;
22449;SDS011;11392;57.390;-2.468;2023-03-20T00:09:20;3.88;;;2.30;;
22449;SDS011;11392;57.390;-2.468;2023-03-20T00:11:48;3.20;;;2.47;;
22449;SDS011;11392;57.390;-2.468;2023-03-20T00:14:17;3.40;;;2.20;;
22449;SDS011;11392;57.390;-2.468;2023-03-20T00:16:48;4.35;;;2.72;;
22449;SDS011;11392;57.390;-2.468;2023-03-20T00:19:20;3.65;;;2.17;;
22449;SDS011;11392;57.390;-2.468;2023-03-20T00:21:49;2.13;;;1.92;;
22449;SDS011;11392;57.390;-2.468;2023-03-20T00:24:17;3.83;;;2.13;;
22449;SDS011;11392;57.390;-2.468;2023-03-20T00:26:45;4.35;;;2.50;;
22449;SDS011;11392;57.390;-2.468;2023-03-20T00:29:17;3.45;;;2.83;;
22449;SDS011;11392;57.390;-2.468;2023-03-20T00:31:51;7.13;;;3.95;;
22449;SDS011;11392;57.390;-2.468;2023-03-20T00:34:20;7.97;;;3.28;;
22449;SDS011;11392;57.390;-2.468;2023-03-20T00:36:49;3.97;;;2.95;;
22449;SDS011;11392;57.390;-2.468;2023-03-20T00:39:17;5.45;;;3.00;;
22449;SDS011;11392;57.390;-2.468;2023-03-20T00:41:48;3.83;;;3.00;;
22449;SDS011;11392;57.390;-2.468;2023-03-20T00:46:55;3.72;;;3.20;;
22449;SDS011;11392;57.390;-2.468;2023-03-20T00:49:25;8.68;;;4.63;;
22449;SDS011;11392;57.390;-2.468;2023-03-20T00:51:55;6.28;;;3.63;;
22449;SDS011;11392;57.390;-2.468;2023-03-20T00:54:22;5.82;;;3.83;;
22449;SDS011;11392;57.390;-2.468;2023-03-20T00:59:32;8.43;;;3.78;;
22449;SDS011;11392;57.390;-2.468;2023-03-20T01:02:03;7.80;;;3.47;;
22449;SDS011;11392;57.390;-2.468;2023-03-20T01:04:34;4.97;;;4.18;;
22449;SDS011;11392;57.390;-2.468;2023-03-20T01:07:04;7.30;;;4.28;;
22449;SDS011;11392;57.390;-2.468;2023-03-20T01:09:33;3.88;;;3.47;;
22449;SDS011;11392;57.390;-2.468;2023-03-20T01:12:00;4.50;;;2.97;;
22449;SDS011;11392;57.390;-2.468;2023-03-20T01:14:28;5.63;;;3.45;;
22449;SDS011;11392;57.390;-2.468;2023-03-20T01:16:55;5.75;;;3.53;;
22449;SDS011;11392;57.390;-2.468;2023-03-20T01:19:22;3.30;;;2.85;;
22449;SDS011;11392;57.390;-2.468;2023-03-20T01:21:50;5.10;;;3.55;;
22449;SDS011;11392;57.390;-2.468;2023-03-20T01:24:17;5.35;;;2.90;;
22449;SDS011;11392;57.390;-2.468;2023-03-20T01:26:44;8.23;;;3.83;;
22449;SDS011;11392;57.390;-2.468;2023-03-20T01:29:16;4.40;;;2.97;;
22449;SDS011;11392;57.390;-2.468;2023-03-20T01:31:45;4.22;;;2.80;;
22449;SDS011;11392;57.390;-2.468;2023-03-20T01:34:13;6.00;;;3.40;;
22449;SDS011;11392;57.390;-2.468;2023-03-20T01:36:46;3.63;;;2.58;;
22449;SDS011;11392;57.390;-2.468;2023-03-20T01:39:16;4.03;;;2.67;;
22449;SDS011;11392;57.390;-2.468;2023-03-20T01:41:44;4.45;;;3.40;;
22449;SDS011;11392;57.390;-2.468;2023-03-20T01:44:19;4.95;;;3.13;;
22449;SDS011;11392;57.390;-2.468;2023-03-20T01:46:51;8.50;;;3.97;;
22449;SDS011;11392;57.390;-2.468;2023-03-20T01:51:49;3.97;;;2.95;;
22449;SDS011;11392;57.390;-2.468;2023-03-20T01:54:27;4.78;;;3.08;;
22449;SDS011;11392;57.390;-2.468;2023-03-20T01:57:13;4.85;;;3.00;;
22449;SDS011;11392;57.390;-2.468;2023-03-20T01:59:45;4.43;;;3.05;;
22449;SDS011;11392;57.390;-2.468;2023-03-20T02:02:20;5.13;;;2.90;;
22449;SDS011;11392;57.390;-2.468;2023-03-20T02:04:53;6.97;;;3.53;;
22449;SDS011;11392;57.390;-2.468;2023-03-20T02:07:25;5.88;;;3.20;;
22449;SDS011;11392;57.390;-2.468;2023-03-20T02:09:52;3.97;;;2.97;;
22449;SDS011;11392;57.390;-2.468;2023-03-20T02:12:19;3.35;;;3.00;;
22449;SDS011;11392;57.390;-2.468;2023-03-20T02:14:48;2.97;;;2.55;;
22449;SDS011;11392;57.390;-2.468;2023-03-20T02:17:15;6.38;;;3.58;;
22449;SDS011;11392;57.390;-2.468;2023-03-20T02:20:06;4.63;;;3.15;;
22449;SDS011;11392;57.390;-2.468;2023-03-20T02:28:18;4.60;;;2.88;;
22449;SDS011;11392;57.390;-2.468;2023-03-20T02:55:26;8.40;;;3.25;;
22449;SDS011;11392;57.390;-2.468;2023-03-20T03:01:02;3.17;;;2.42;;
22449;SDS011;11392;57.390;-2.468;2023-03-20T03:03:38;11.55;;;2.65;;
22449;SDS011;11392;57.390;-2.468;2023-03-20T03:09:04;2.35;;;1.73;;
22449;SDS011;11392;57.390;-2.468;2023-03-20T03:11:33;19.55;;;3.55;;
22449;SDS011;11392;57.390;-2.468;2023-03-20T03:14:03;77.63;;;7.25;;
22449;SDS011;11392;57.390;-2.468;2023-03-20T03:16:32;66.05;;;7.65;;
22449;SDS011;11392;57.390;-2.468;2023-03-20T03:19:04;13.00;;;3.75;;
22449;SDS011;11392;57.390;-2.468;2023-03-20T03:21:35;9.23;;;2.42;;
22449;SDS011;11392;57.390;-2.468;2023-03-20T03:24:04;30.48;;;4.53;;
22449;SDS011;11392;57.390;-2.468;2023-03-20T03:26:51;15.57;;;3.25;;
22449;SDS011;11392;57.390;-2.468;2023-03-20T03:29:19;29.73;;;4.63;;
22449;SDS011;11392;57.390;-2.468;2023-03-20T03:31:49;68.50;;;6.68;;
22449;SDS011;11392;57.390;-2.468;2023-03-20T03:34:18;48.85;;;5.95;;
22449;SDS011;11392;57.390;-2.468;2023-03-20T03:39:40;71.30;;;6.75;;
22449;SDS011;11392;57.390;-2.468;2023-03-20T03:50:13;80.68;;;6.55;;
22449;SDS011;11392;57.390;-2.468;2023-03-20T03:52:44;126.78;;;10.30;;
22449;SDS011;11392;57.390;-2.468;2023-03-20T03:55:17;89.82;;;7.25;;
22449;SDS011;11392;57.390;-2.468;2023-03-20T03:57:48;74.60;;;6.88;;
22449;SDS011;11392;57.390;-2.468;2023-03-20T04:00:23;132.00;;;9.00;;
22449;SDS011;11392;57.390;-2.468;2023-03-20T04:02:54;109.63;;;8.45;;
22449;SDS011;11392;57.390;-2.468;2023-03-20T04:05:24;120.53;;;8.95;;
22449;SDS011;11392;57.390;-2.468;2023-03-20T04:07:57;100.22;;;8.15;;
22449;SDS011;11392;57.390;-2.468;2023-03-20T04:10:26;57.90;;;5.70;;
22449;SDS011;11392;57.390;-2.468;2023-03-20T04:12:53;48.97;;;4.75;;
22449;SDS011;11392;57.390;-2.468;2023-03-20T04:15:20;27.00;;;3.58;;
22449;SDS011;11392;57.390;-2.468;2023-03-20T04:17:47;57.63;;;4.93;;
22449;SDS011;11392;57.390;-2.468;2023-03-20T04:20:14;66.45;;;5.75;;
22449;SDS011;11392;57.390;-2.468;2023-03-20T04:22:42;84.53;;;6.20;;
22449;SDS011;11392;57.390;-2.468;2023-03-20T04:25:13;73.10;;;5.65;;
22449;SDS011;11392;57.390;-2.468;2023-03-20T04:27:48;95.88;;;7.68;;
22449;SDS011;11392;57.390;-2.468;2023-03-20T04:30:15;87.93;;;6.40;;
22449;SDS011;11392;57.390;-2.468;2023-03-20T04:32:43;59.58;;;4.68;;
22449;SDS011;11392;57.390;-2.468;2023-03-20T04:35:10;67.97;;;5.30;;
22449;SDS011;11392;57.390;-2.468;2023-03-20T04:37:37;48.10;;;4.22;;
22449;SDS011;11392;57.390;-2.468;2023-03-20T04:40:04;37.40;;;3.42;;
22449;SDS011;11392;57.390;-2.468;2023-03-20T04:42:32;40.13;;;4.18;;
22449;SDS011;11392;57.390;-2.468;2023-03-20T04:44:59;55.85;;;4.53;;
22449;SDS011;11392;57.390;-2.468;2023-03-20T04:47:26;52.47;;;5.00;;
22449;SDS011;11392;57.390;-2.468;2023-03-20T04:49:53;52.35;;;4.70;;
22449;SDS011;11392;57.390;-2.468;2023-03-20T04:52:20;55.00;;;4.97;;
22449;SDS011;11392;57.390;-2.468;2023-03-20T04:54:47;73.90;;;5.85;;
22449;SDS011;11392;57.390;-2.468;2023-03-20T04:57:14;49.97;;;4.93;;
22449;SDS011;11392;57.390;-2.468;2023-03-20T04:59:42;58.63;;;5.13;;
22449;SDS011;11392;57.390;-2.468;2023-03-20T05:02:08;30.90;;;3.60;;
22449;SDS011;11392;57.390;-2.468;2023-03-20T05:04:43;26.20;;;2.78;;
22449;SDS011;11392;57.390;-2.468;2023-03-20T05:07:10;35.30;;;3.42;;
22449;SDS011;11392;57.390;-2.468;2023-03-20T05:09:37;26.83;;;3.08;;
22449;SDS011;11392;57.390;-2.468;2023-03-20T05:12:04;27.73;;;3.50;;
22449;SDS011;11392;57.390;-2.468;2023-03-20T05:14:32;11.15;;;2.20;;
22449;SDS011;11392;57.390;-2.468;2023-03-20T05:16:59;36.45;;;4.28;;
22449;SDS011;11392;57.390;-2.468;2023-03-20T05:19:26;18.60;;;2.78;;
22449;SDS011;11392;57.390;-2.468;2023-03-20T05:21:53;16.60;;;2.47;;
22449;SDS011;11392;57.390;-2.468;2023-03-20T05:24:21;52.85;;;4.45;;
22449;SDS011;11392;57.390;-2.468;2023-03-20T05:26:48;44.47;;;4.22;;
22449;SDS011;11392;57.390;-2.468;2023-03-20T05:29:15;19.88;;;2.90;;
22449;SDS011;11392;57.390;-2.468;2023-03-20T05:31:42;30.42;;;3.05;;
22449;SDS011;11392;57.390;-2.468;2023-03-20T05:34:09;25.67;;;2.97;;
22449;SDS011;11392;57.390;-2.468;2023-03-20T05:36:36;67.13;;;6.07;;
22449;SDS011;11392;57.390;-2.468;2023-03-20T05:39:03;83.53;;;7.18;;
22449;SDS011;11392;57.390;-2.468;2023-03-20T05:41:31;96.13;;;7.43;;
22449;SDS011;11392;57.390;-2.468;2023-03-20T05:43:58;96.80;;;8.35;;
22449;SDS011;11392;57.390;-2.468;2023-03-20T05:46:26;119.70;;;9.50;;
22449;SDS011;11392;57.390;-2.468;2023-03-20T05:48:53;106.93;;;8.20;;
22449;SDS011;11392;57.390;-2.468;2023-03-20T05:51:20;76.65;;;7.18;;
22449;SDS011;11392;57.390;-2.468;2023-03-20T05:53:47;81.22;;;6.90;;
22449;SDS011;11392;57.390;-2.468;2023-03-20T05:56:14;73.65;;;6.50;;
22449;SDS011;11392;57.390;-2.468;2023-03-20T05:58:41;57.00;;;6.03;;
22449;SDS011;11392;57.390;-2.468;2023-03-20T06:01:08;59.20;;;5.65;;
22449;SDS011;11392;57.390;-2.468;2023-03-20T06:03:35;100.70;;;7.50;;
22449;SDS011;11392;57.390;-2.468;2023-03-20T06:06:02;67.80;;;5.88;;
22449;SDS011;11392;57.390;-2.468;2023-03-20T06:08:29;75.25;;;6.78;;
22449;SDS011;11392;57.390;-2.468;2023-03-20T06:10:56;64.85;;;6.22;;
22449;SDS011;11392;57.390;-2.468;2023-03-20T06:13:23;81.35;;;6.47;;
22449;SDS011;11392;57.390;-2.468;2023-03-20T06:15:51;108.68;;;7.97;;
22449;SDS011;11392;57.390;-2.468;2023-03-20T06:18:18;32.55;;;3.92;;
22449;SDS011;11392;57.390;-2.468;2023-03-20T06:20:45;65.15;;;5.32;;
22449;SDS011;11392;57.390;-2.468;2023-03-20T06:23:12;60.92;;;5.50;;
22449;SDS011;11392;57.390;-2.468;2023-03-20T06:25:39;79.40;;;6.53;;
22449;SDS011;11392;57.390;-2.468;2023-03-20T06:28:06;62.00;;;4.93;;
22449;SDS011;11392;57.390;-2.468;2023-03-20T06:30:33;100.07;;;7.40;;
22449;SDS011;11392;57.390;-2.468;2023-03-20T06:33:01;85.57;;;6.90;;
22449;SDS011;11392;57.390;-2.468;2023-03-20T06:35:28;61.53;;;5.45;;
22449;SDS011;11392;57.390;-2.468;2023-03-20T06:37:57;26.98;;;3.03;;
22449;SDS011;11392;57.390;-2.468;2023-03-20T06:40:24;142.65;;;9.45;;
22449;SDS011;11392;57.390;-2.468;2023-03-20T06:42:52;75.38;;;6.13;;
22449;SDS011;11392;57.390;-2.468;2023-03-20T06:45:20;3.92;;;1.58;;
22449;SDS011;11392;57.390;-2.468;2023-03-20T06:47:47;12.50;;;1.95;;
22449;SDS011;11392;57.390;-2.468;2023-03-20T06:50:14;52.95;;;3.97;;
22449;SDS011;11392;57.390;-2.468;2023-03-20T06:52:41;63.40;;;4.53;;
22449;SDS011;11392;57.390;-2.468;2023-03-20T06:55:10;97.25;;;5.80;;
22449;SDS011;11392;57.390;-2.468;2023-03-20T06:57:37;77.65;;;5.60;;
22449;SDS011;11392;57.390;-2.468;2023-03-20T07:00:04;23.58;;;2.38;;
22449;SDS011;11392;57.390;-2.468;2023-03-20T07:02:33;65.03;;;4.85;;
22449;SDS011;11392;57.390;-2.468;2023-03-20T07:05:00;84.25;;;6.43;;
22449;SDS011;11392;57.390;-2.468;2023-03-20T07:07:27;51.15;;;4.32;;
22449;SDS011;11392;57.390;-2.468;2023-03-20T07:09:54;35.60;;;3.40;;
22449;SDS011;11392;57.390;-2.468;2023-03-20T07:12:21;59.40;;;5.15;;
22449;SDS011;11392;57.390;-2.468;2023-03-20T07:14:53;20.33;;;2.13;;
22449;SDS011;11392;57.390;-2.468;2023-03-20T07:17:21;35.60;;;3.30;;
22449;SDS011;11392;57.390;-2.468;2023-03-20T07:19:48;28.63;;;2.80;;
22449;SDS011;11392;57.390;-2.468;2023-03-20T07:22:23;2.60;;;1.05;;
22449;SDS011;11392;57.390;-2.468;2023-03-20T07:24:51;3.58;;;0.98;;
22449;SDS011;11392;57.390;-2.468;2023-03-20T07:27:18;19.08;;;2.08;;
22449;SDS011;11392;57.390;-2.468;2023-03-20T07:29:46;3.30;;;1.30;;
22449;SDS011;11392;57.390;-2.468;2023-03-20T07:32:13;33.08;;;2.83;;
22449;SDS011;11392;57.390;-2.468;2023-03-20T07:34:41;23.58;;;2.50;;
22449;SDS011;11392;57.390;-2.468;2023-03-20T07:37:09;31.85;;;2.75;;
22449;SDS011;11392;57.390;-2.468;2023-03-20T07:39:36;70.90;;;5.05;;
22449;SDS011;11392;57.390;-2.468;2023-03-20T07:42:03;89.30;;;5.70;;
22449;SDS011;11392;57.390;-2.468;2023-03-20T07:44:30;8.30;;;1.52;;
22449;SDS011;11392;57.390;-2.468;2023-03-20T07:46:57;46.92;;;3.42;;
22449;SDS011;11392;57.390;-2.468;2023-03-20T07:49:24;4.32;;;1.20;;
22449;SDS011;11392;57.390;-2.468;2023-03-20T07:51:52;45.97;;;3.47;;
22449;SDS011;11392;57.390;-2.468;2023-03-20T07:54:22;47.90;;;4.10;;
22449;SDS011;11392;57.390;-2.468;2023-03-20T07:56:49;18.30;;;2.13;;
22449;SDS011;11392;57.390;-2.468;2023-03-20T07:59:17;48.92;;;3.95;;
22449;SDS011;11392;57.390;-2.468;2023-03-20T08:01:44;21.83;;;2.65;;
22449;SDS011;11392;57.390;-2.468;2023-03-20T08:04:12;36.05;;;3.55;;
22449;SDS011;11392;57.390;-2.468;2023-03-20T08:06:39;21.27;;;2.30;;
22449;SDS011;11392;57.390;-2.468;2023-03-20T08:09:07;20.92;;;2.33;;
22449;SDS011;11392;57.390;-2.468;2023-03-20T08:11:34;15.02;;;1.60;;
22449;SDS011;11392;57.390;-2.468;2023-03-20T08:14:01;24.38;;;2.40;;
22449;SDS011;11392;57.390;-2.468;2023-03-20T08:16:28;17.75;;;1.75;;
22449;SDS011;11392;57.390;-2.468;2023-03-20T08:18:55;40.42;;;3.88;;
22449;SDS011;11392;57.390;-2.468;2023-03-20T08:21:27;13.25;;;1.67;;
22449;SDS011;11392;57.390;-2.468;2023-03-20T08:23:55;5.80;;;1.50;;
22449;SDS011;11392;57.390;-2.468;2023-03-20T08:26:23;17.90;;;2.20;;
22449;SDS011;11392;57.390;-2.468;2023-03-20T08:28:50;25.27;;;3.55;;
22449;SDS011;11392;57.390;-2.468;2023-03-20T08:31:18;14.63;;;1.98;;
22449;SDS011;11392;57.390;-2.468;2023-03-20T08:33:45;25.85;;;2.80;;
22449;SDS011;11392;57.390;-2.468;2023-03-20T08:36:13;5.10;;;1.27;;
22449;SDS011;11392;57.390;-2.468;2023-03-20T08:38:41;25.95;;;3.22;;
22449;SDS011;11392;57.390;-2.468;2023-03-20T08:41:08;24.70;;;2.50;;
22449;SDS011;11392;57.390;-2.468;2023-03-20T08:43:36;28.73;;;3.75;;
22449;SDS011;11392;57.390;-2.468;2023-03-20T08:46:03;23.27;;;3.20;;
22449;SDS011;11392;57.390;-2.468;2023-03-20T08:48:31;32.15;;;3.33;;
22449;SDS011;11392;57.390;-2.468;2023-03-20T08:50:58;18.10;;;3.55;;
22449;SDS011;11392;57.390;-2.468;2023-03-20T08:53:26;23.60;;;3.15;;
22449;SDS011;11392;57.390;-2.468;2023-03-20T08:55:53;3.22;;;2.03;;
22449;SDS011;11392;57.390;-2.468;2023-03-20T08:58:21;10.15;;;2.17;;
22449;SDS011;11392;57.390;-2.468;2023-03-20T09:00:48;2.80;;;2.33;;
22449;SDS011;11392;57.390;-2.468;2023-03-20T09:03:17;3.83;;;2.53;;
22449;SDS011;11392;57.390;-2.468;2023-03-20T09:05:47;2.53;;;2.28;;
22449;SDS011;11392;57.390;-2.468;2023-03-20T09:08:16;2.75;;;2.35;;
22449;SDS011;11392;57.390;-2.468;2023-03-20T09:10:45;2.08;;;1.85;;
22449;SDS011;11392;57.390;-2.468;2023-03-20T09:13:13;2.33;;;2.13;;
22449;SDS011;11392;57.390;-2.468;2023-03-20T09:15:53;2.17;;;1.58;;
22449;SDS011;11392;57.390;-2.468;2023-03-20T09:18:21;2.47;;;2.28;;
22449;SDS011;11392;57.390;-2.468;2023-03-20T09:20:49;2.70;;;2.28;;
22449;SDS011;11392;57.390;-2.468;2023-03-20T09:23:17;2.72;;;2.53;;
22449;SDS011;11392;57.390;-2.468;2023-03-20T09:25:45;2.80;;;2.47;;
22449;SDS011;11392;57.390;-2.468;2023-03-20T09:28:13;2.80;;;2.50;;
22449;SDS011;11392;57.390;-2.468;2023-03-20T09:30:40;3.20;;;2.90;;
22449;SDS011;11392;57.390;-2.468;2023-03-20T09:33:09;3.10;;;2.35;;
22449;SDS011;11392;57.390;-2.468;2023-03-20T09:35:36;3.30;;;2.85;;
22449;SDS011;11392;57.390;-2.468;2023-03-20T09:38:04;4.05;;;3.50;;
22449;SDS011;11392;57.390;-2.468;2023-03-20T09:43:08;3.67;;;2.97;;
22449;SDS011;11392;57.390;-2.468;2023-03-20T09:48:31;3.22;;;2.90;;
22449;SDS011;11392;57.390;-2.468;2023-03-20T09:53:46;3.78;;;3.47;;
22449;SDS011;11392;57.390;-2.468;2023-03-20T09:56:20;5.25;;;3.47;;
22449;SDS011;11392;57.390;-2.468;2023-03-20T09:58:52;3.40;;;3.10;;
22449;SDS011;11392;57.390;-2.468;2023-03-20T10:04:12;3.25;;;2.95;;
22449;SDS011;11392;57.390;-2.468;2023-03-20T10:06:40;4.50;;;3.10;;
22449;SDS011;11392;57.390;-2.468;2023-03-20T10:19:29;2.50;;;2.30;;
22449;SDS011;11392;57.390;-2.468;2023-03-20T10:24:28;3.00;;;2.67;;
22449;SDS011;11392;57.390;-2.468;2023-03-20T10:27:04;2.80;;;1.90;;
22449;SDS011;11392;57.390;-2.468;2023-03-20T10:41:07;2.95;;;2.30;;
22449;SDS011;11392;57.390;-2.468;2023-03-20T10:43:39;2.42;;;2.22;;
22449;SDS011;11392;57.390;-2.468;2023-03-20T10:46:13;1.90;;;1.70;;
22449;SDS011;11392;57.390;-2.468;2023-03-20T10:54:34;2.38;;;1.65;;
22449;SDS011;11392;57.390;-2.468;2023-03-20T10:57:09;2.58;;;1.60;;
22449;SDS011;11392;57.390;-2.468;2023-03-20T10:59:51;2.42;;;2.15;;
22449;SDS011;11392;57.390;-2.468;2023-03-20T11:02:24;2.47;;;2.00;;
22449;SDS011;11392;57.390;-2.468;2023-03-20T11:04:55;2.95;;;2.08;;
22449;SDS011;11392;57.390;-2.468;2023-03-20T11:07:46;1.90;;;1.70;;
22449;SDS011;11392;57.390;-2.468;2023-03-20T11:10:17;2.85;;;1.80;;
22449;SDS011;11392;57.390;-2.468;2023-03-20T11:12:47;1.77;;;1.65;;
22449;SDS011;11392;57.390;-2.468;2023-03-20T11:15:20;1.30;;;1.20;;
22449;SDS011;11392;57.390;-2.468;2023-03-20T11:17:53;1.20;;;1.10;;
22449;SDS011;11392;57.390;-2.468;2023-03-20T11:20:23;3.00;;;0.93;;
22449;SDS011;11392;57.390;-2.468;2023-03-20T11:22:56;1.30;;;1.20;;
22449;SDS011;11392;57.390;-2.468;2023-03-20T11:25:31;1.13;;;0.93;;
22449;SDS011;11392;57.390;-2.468;2023-03-20T11:31:16;5.53;;;1.42;;
22449;SDS011;11392;57.390;-2.468;2023-03-20T11:33:49;1.60;;;1.40;;
22449;SDS011;11392;57.390;-2.468;2023-03-20T11:36:26;2.72;;;1.15;;
22449;SDS011;11392;57.390;-2.468;2023-03-20T11:39:06;3.67;;;1.40;;
22449;SDS011;11392;57.390;-2.468;2023-03-20T11:46:59;2.38;;;1.35;;
22449;SDS011;11392;57.390;-2.468;2023-03-20T11:49:54;2.97;;;1.25;;
22449;SDS011;11392;57.390;-2.468;2023-03-20T11:52:25;1.73;;;1.10;;
22449;SDS011;11392;57.390;-2.468;2023-03-20T11:54:59;1.88;;;1.60;;
22449;SDS011;11392;57.390;-2.468;2023-03-20T11:57:30;1.58;;;1.05;;
22449;SDS011;11392;57.390;-2.468;2023-03-20T12:00:19;1.88;;;0.98;;
22449;SDS011;11392;57.390;-2.468;2023-03-20T12:02:48;2.58;;;1.02;;
22449;SDS011;11392;57.390;-2.468;2023-03-20T12:05:35;1.20;;;1.05;;
22449;SDS011;11392;57.390;-2.468;2023-03-20T12:08:09;1.92;;;1.10;;
22449;SDS011;11392;57.390;-2.468;2023-03-20T12:10:42;1.75;;;0.88;;
22449;SDS011;11392;57.390;-2.468;2023-03-20T12:13:18;0.95;;;0.90;;
22449;SDS011;11392;57.390;-2.468;2023-03-20T12:15:53;1.30;;;1.08;;
22449;SDS011;11392;57.390;-2.468;2023-03-20T12:26:11;1.77;;;1.10;;
22449;SDS011;11392;57.390;-2.468;2023-03-20T12:34:37;1.20;;;1.10;;
22449;SDS011;11392;57.390;-2.468;2023-03-20T12:37:12;1.48;;;1.23;;
22449;SDS011;11392;57.390;-2.468;2023-03-20T12:39:51;2.25;;;1.33;;
22449;SDS011;11392;57.390;-2.468;2023-03-20T12:48:04;1.10;;;1.00;;
22449;SDS011;11392;57.390;-2.468;2023-03-20T12:50:38;0.70;;;0.70;;
22449;SDS011;11392;57.390;-2.468;2023-03-20T13:04:15;1.35;;;0.90;;
22449;SDS011;11392;57.390;-2.468;2023-03-20T13:06:58;1.65;;;0.77;;
22449;SDS011;11392;57.390;-2.468;2023-03-20T13:09:40;1.50;;;0.80;;
22449;SDS011;11392;57.390;-2.468;2023-03-20T13:12:32;2.03;;;0.90;;
22449;SDS011;11392;57.390;-2.468;2023-03-20T13:21:38;0.50;;;0.50;;
22449;SDS011;11392;57.390;-2.468;2023-03-20T13:29:54;0.75;;;0.68;;
22449;SDS011;11392;57.390;-2.468;2023-03-20T13:37:54;2.13;;;0.70;;
22449;SDS011;11392;57.390;-2.468;2023-03-20T13:40:26;1.40;;;0.65;;
22449;SDS011;11392;57.390;-2.468;2023-03-20T13:45:38;1.25;;;0.77;;
22449;SDS011;11392;57.390;-2.468;2023-03-20T14:05:04;1.83;;;1.45;;
22449;SDS011;11392;57.390;-2.468;2023-03-20T14:07:48;2.50;;;1.00;;
22449;SDS011;11392;57.390;-2.468;2023-03-20T14:12:49;2.97;;;1.10;;
22449;SDS011;11392;57.390;-2.468;2023-03-20T14:15:21;1.20;;;1.10;;
22449;SDS011;11392;57.390;-2.468;2023-03-20T14:17:52;1.48;;;1.27;;
22449;SDS011;11392;57.390;-2.468;2023-03-20T14:20:27;2.47;;;1.10;;
22449;SDS011;11392;57.390;-2.468;2023-03-20T14:23:04;0.85;;;0.85;;
22449;SDS011;11392;57.390;-2.468;2023-03-20T14:25:38;1.75;;;1.30;;
22449;SDS011;11392;57.390;-2.468;2023-03-20T14:30:44;2.78;;;1.40;;
22449;SDS011;11392;57.390;-2.468;2023-03-20T14:36:11;3.30;;;1.35;;
22449;SDS011;11392;57.390;-2.468;2023-03-20T14:41:47;1.85;;;1.23;;
22449;SDS011;11392;57.390;-2.468;2023-03-20T14:44:49;1.70;;;1.42;;
22449;SDS011;11392;57.390;-2.468;2023-03-20T14:47:43;3.50;;;1.42;;
22449;SDS011;11392;57.390;-2.468;2023-03-20T14:50:21;1.70;;;1.60;;
22449;SDS011;11392;57.390;-2.468;2023-03-20T14:58:32;3.70;;;1.95;;
22449;SDS011;11392;57.390;-2.468;2023-03-20T15:01:16;4.15;;;1.70;;
22449;SDS011;11392;57.390;-2.468;2023-03-20T15:03:51;3.00;;;1.90;;
22449;SDS011;11392;57.390;-2.468;2023-03-20T15:06:24;2.53;;;1.83;;
22449;SDS011;11392;57.390;-2.468;2023-03-20T15:08:54;6.15;;;1.83;;
22449;SDS011;11392;57.390;-2.468;2023-03-20T15:11:28;4.82;;;1.77;;
22449;SDS011;11392;57.390;-2.468;2023-03-20T15:13:56;2.85;;;2.00;;
22449;SDS011;11392;57.390;-2.468;2023-03-20T15:16:26;2.58;;;1.60;;
22449;SDS011;11392;57.390;-2.468;2023-03-20T15:18:56;2.90;;;1.75;;
22449;SDS011;11392;57.390;-2.468;2023-03-20T15:21:33;2.00;;;1.70;;
22449;SDS011;11392;57.390;-2.468;2023-03-20T15:24:03;2.35;;;1.95;;
22449;SDS011;11392;57.390;-2.468;2023-03-20T15:26:31;4.97;;;2.38;;
22449;SDS011;11392;57.390;-2.468;2023-03-20T15:29:02;3.35;;;3.05;;
22449;SDS011;11392;57.390;-2.468;2023-03-20T15:31:37;3.60;;;2.15;;
22449;SDS011;11392;57.390;-2.468;2023-03-20T15:34:19;3.33;;;2.03;;
22449;SDS011;11392;57.390;-2.468;2023-03-20T15:36:56;5.75;;;2.20;;
22449;SDS011;11392;57.390;-2.468;2023-03-20T15:39:26;2.50;;;1.88;;
22449;SDS011;11392;57.390;-2.468;2023-03-20T15:41:56;2.90;;;1.70;;
22449;SDS011;11392;57.390;-2.468;2023-03-20T15:44:32;2.70;;;2.50;;
22449;SDS011;11392;57.390;-2.468;2023-03-20T15:49:42;4.68;;;2.60;;
22449;SDS011;11392;57.390;-2.468;2023-03-20T15:55:10;5.30;;;2.70;;
22449;SDS011;11392;57.390;-2.468;2023-03-20T15:57:42;5.00;;;2.78;;
22449;SDS011;11392;57.390;-2.468;2023-03-20T16:02:43;5.68;;;3.45;;
22449;SDS011;11392;57.390;-2.468;2023-03-20T16:05:14;6.30;;;3.00;;
22449;SDS011;11392;57.390;-2.468;2023-03-20T16:07:42;4.85;;;4.03;;
22449;SDS011;11392;57.390;-2.468;2023-03-20T16:10:20;7.50;;;3.88;;
22449;SDS011;11392;57.390;-2.468;2023-03-20T16:12:54;5.47;;;3.25;;
22449;SDS011;11392;57.390;-2.468;2023-03-20T16:15:23;5.75;;;3.65;;
22449;SDS011;11392;57.390;-2.468;2023-03-20T16:17:54;6.13;;;3.65;;
22449;SDS011;11392;57.390;-2.468;2023-03-20T16:20:24;6.30;;;3.78;;
22449;SDS011;11392;57.390;-2.468;2023-03-20T16:22:58;7.43;;;3.35;;
22449;SDS011;11392;57.390;-2.468;2023-03-20T16:25:28;5.80;;;3.78;;
22449;SDS011;11392;57.390;-2.468;2023-03-20T16:27:55;5.50;;;3.47;;
22449;SDS011;11392;57.390;-2.468;2023-03-20T16:30:24;6.97;;;3.92;;
22449;SDS011;11392;57.390;-2.468;2023-03-20T16:33:00;5.53;;;3.22;;
22449;SDS011;11392;57.390;-2.468;2023-03-20T16:35:38;4.70;;;3.67;;
22449;SDS011;11392;57.390;-2.468;2023-03-20T16:38:24;11.25;;;4.95;;
22449;SDS011;11392;57.390;-2.468;2023-03-20T16:41:13;7.38;;;3.72;;
22449;SDS011;11392;57.390;-2.468;2023-03-20T16:43:44;5.15;;;3.38;;
22449;SDS011;11392;57.390;-2.468;2023-03-20T16:46:21;5.85;;;3.90;;
22449;SDS011;11392;57.390;-2.468;2023-03-20T16:48:50;6.35;;;4.13;;
22449;SDS011;11392;57.390;-2.468;2023-03-20T16:51:28;12.68;;;4.97;;
22449;SDS011;11392;57.390;-2.468;2023-03-20T16:53:57;6.72;;;3.95;;
22449;SDS011;11392;57.390;-2.468;2023-03-20T16:59:06;7.82;;;4.35;;
22449;SDS011;11392;57.390;-2.468;2023-03-20T17:01:35;6.88;;;4.28;;
22449;SDS011;11392;57.390;-2.468;2023-03-20T17:07:13;7.30;;;4.70;;
22449;SDS011;11392;57.390;-2.468;2023-03-20T17:09:54;5.43;;;4.50;;
22449;SDS011;11392;57.390;-2.468;2023-03-20T17:12:31;7.07;;;4.30;;
22449;SDS011;11392;57.390;-2.468;2023-03-20T17:14:59;10.63;;;5.55;;
22449;SDS011;11392;57.390;-2.468;2023-03-20T17:17:26;8.68;;;5.13;;
22449;SDS011;11392;57.390;-2.468;2023-03-20T17:19:53;7.25;;;5.32;;
22449;SDS011;11392;57.390;-2.468;2023-03-20T17:22:21;7.22;;;5.07;;
22449;SDS011;11392;57.390;-2.468;2023-03-20T17:24:51;9.25;;;5.60;;
22449;SDS011;11392;57.390;-2.468;2023-03-20T17:27:18;8.60;;;5.78;;
22449;SDS011;11392;57.390;-2.468;2023-03-20T17:29:46;8.63;;;5.32;;
22449;SDS011;11392;57.390;-2.468;2023-03-20T17:32:20;5.72;;;4.55;;
22449;SDS011;11392;57.390;-2.468;2023-03-20T17:34:50;8.07;;;4.85;;
22449;SDS011;11392;57.390;-2.468;2023-03-20T17:37:22;5.47;;;4.78;;
22449;SDS011;11392;57.390;-2.468;2023-03-20T17:39:55;6.95;;;5.00;;
22449;SDS011;11392;57.390;-2.468;2023-03-20T17:42:23;7.15;;;5.65;;
22449;SDS011;11392;57.390;-2.468;2023-03-20T17:44:59;8.48;;;5.88;;
22449;SDS011;11392;57.390;-2.468;2023-03-20T17:47:29;7.82;;;5.63;;
22449;SDS011;11392;57.390;-2.468;2023-03-20T17:49:56;8.57;;;4.35;;
22449;SDS011;11392;57.390;-2.468;2023-03-20T17:52:25;6.07;;;4.82;;
22449;SDS011;11392;57.390;-2.468;2023-03-20T17:54:53;6.32;;;4.30;;
22449;SDS011;11392;57.390;-2.468;2023-03-20T17:57:30;4.88;;;3.72;;
22449;SDS011;11392;57.390;-2.468;2023-03-20T17:59:59;4.72;;;4.00;;
22449;SDS011;11392;57.390;-2.468;2023-03-20T18:02:27;4.13;;;3.42;;
22449;SDS011;11392;57.390;-2.468;2023-03-20T18:04:54;4.25;;;3.67;;
22449;SDS011;11392;57.390;-2.468;2023-03-20T18:07:21;3.88;;;2.97;;
22449;SDS011;11392;57.390;-2.468;2023-03-20T18:09:48;4.40;;;3.38;;
22449;SDS011;11392;57.390;-2.468;2023-03-20T18:12:16;3.90;;;3.05;;